Aviation Digital Data Service (ADDS)

Output produced by METARs form (1715 UTC 21 September 2019)
found at http://aviationweather.gov/metar/data/
 
KJAN 211120Z 2112/2212 00000KT P6SM FEW060 FEW300 
     FM211500 13009KT P6SM FEW060 FEW300